Time;durP1;ratioP1;P1;durP2;ratioP2;P2;SDS_P1;SDS_P2;PMS_P1;PMS_P2;Temp;Humidity;BMP_temperature;BMP_pressure;BME280_temperature;BME280_humidity;BME280_pressure;Samples;Min_cycle;Max_cycle;Signal;HPM_P1;HPM_P2
2024/01/28 00:00:58;;;;;;;0.20;0.20;;;;;;;;;;6217965;28;20084;-81
2024/01/28 00:03:59;;;;;;;0.20;0.20;;;;;;;;;;6213240;28;20516;-81
2024/01/28 00:06:59;;;;;;;0.20;0.20;;;;;;;;;;6218285;28;20480;-81
2024/01/28 00:09:59;;;;;;;0.20;0.20;;;;;;;;;;6216481;28;20025;-82
2024/01/28 00:12:59;;;;;;;0.20;0.20;;;;;;;;;;6217891;28;20033;-82
2024/01/28 00:15:59;;;;;;;0.20;0.20;;;;;;;;;;6218313;28;20033;-81
2024/01/28 00:19:00;;;;;;;0.20;0.20;;;;;;;;;;6217626;28;20610;-82
2024/01/28 00:22:00;;;;;;;0.20;0.20;;;;;;;;;;6216950;28;20041;-82
2024/01/28 00:25:01;;;;;;;0.20;0.20;;;;;;;;;;6199237;28;20026;-82
2024/01/28 00:28:01;;;;;;;0.20;0.20;;;;;;;;;;6217959;28;20076;-80
2024/01/28 00:31:01;;;;;;;0.20;0.20;;;;;;;;;;6217805;28;20026;-80
2024/01/28 00:34:01;;;;;;;0.20;0.20;;;;;;;;;;6218181;28;20037;-80
2024/01/28 00:37:02;;;;;;;0.20;0.20;;;;;;;;;;6217659;28;20026;-80
2024/01/28 00:40:03;;;;;;;0.20;0.20;;;;;;;;;;6217731;28;20499;-80
2024/01/28 00:43:04;;;;;;;0.20;0.20;;;;;;;;;;6200697;28;20464;-82
2024/01/28 00:46:04;;;;;;;0.20;0.20;;;;;;;;;;6175753;28;20382;-82
2024/01/28 00:49:04;;;;;;;0.20;0.20;;;;;;;;;;6211677;28;20018;-81
2024/01/28 00:52:05;;;;;;;0.20;0.20;;;;;;;;;;6217512;28;20058;-81
2024/01/28 00:55:06;;;;;;;0.20;0.20;;;;;;;;;;6199726;28;20044;-82
2024/01/28 00:58:07;;;;;;;0.20;0.20;;;;;;;;;;6217915;28;20038;-81
2024/01/28 01:01:07;;;;;;;0.20;0.20;;;;;;;;;;6217463;28;20024;-81
2024/01/28 01:04:07;;;;;;;0.20;0.20;;;;;;;;;;6216992;28;20045;-81
2024/01/28 01:07:08;;;;;;;0.20;0.20;;;;;;;;;;6217777;28;20060;-81
2024/01/28 01:10:08;;;;;;;0.20;0.20;;;;;;;;;;6217371;28;20073;-81
2024/01/28 01:13:09;;;;;;;0.20;0.20;;;;;;;;;;6199733;28;20030;-81
2024/01/28 01:16:09;;;;;;;0.20;0.20;;;;;;;;;;6218408;28;20412;-79
2024/01/28 01:19:09;;;;;;;0.20;0.20;;;;;;;;;;6217508;28;20044;-78
2024/01/28 01:22:09;;;;;;;0.20;0.20;;;;;;;;;;6192112;28;20075;-78
2024/01/28 01:25:11;;;;;;;0.20;0.20;;;;;;;;;;6199657;28;20014;-78
2024/01/28 01:28:11;;;;;;;0.20;0.20;;;;;;;;;;6217543;28;20018;-80
2024/01/28 01:31:11;;;;;;;0.20;0.20;;;;;;;;;;6217424;28;20053;-80
2024/01/28 01:34:11;;;;;;;0.20;0.20;;;;;;;;;;6215334;28;20053;-80
2024/01/28 01:37:12;;;;;;;0.20;0.20;;;;;;;;;;6219767;28;20120;-80
2024/01/28 01:40:14;;;;;;;0.20;0.20;;;;;;;;;;6221795;28;20560;-80
2024/01/28 01:43:15;;;;;;;0.20;0.20;;;;;;;;;;6221236;28;20034;-80
2024/01/28 01:46:16;;;;;;;0.20;0.20;;;;;;;;;;6221882;28;20562;-80
2024/01/28 01:49:16;;;;;;;0.20;0.20;;;;;;;;;;6221149;28;20033;-80
2024/01/28 01:52:18;;;;;;;0.20;0.20;;;;;;;;;;6221721;28;20026;-80
2024/01/28 01:55:18;;;;;;;0.20;0.20;;;;;;;;;;6221979;28;20025;-80
2024/01/28 01:58:19;;;;;;;0.20;0.20;;;;;;;;;;6203477;28;20029;-80
2024/01/28 02:01:19;;;;;;;0.20;0.20;;;;;;;;;;6207351;28;20041;-80
2024/01/28 02:04:20;;;;;;;0.20;0.20;;;;;;;;;;6218515;28;20096;-80
2024/01/28 02:07:21;;;;;;;0.20;0.20;;;;;;;;;;6220858;28;20030;-80
2024/01/28 02:10:22;;;;;;;0.20;0.20;;;;;;;;;;6220436;28;20029;-80
2024/01/28 02:13:22;;;;;;;0.20;0.20;;;;;;;;;;6220698;28;20369;-80
2024/01/28 02:16:24;;;;;;;0.20;0.20;;;;;;;;;;6220399;28;20433;-80
2024/01/28 02:19:25;;;;;;;0.20;0.20;;;;;;;;;;6191190;28;20034;-80
2024/01/28 02:22:25;;;;;;;;;;;;;;;;;;6210013;28;20030;-80
2024/01/28 02:25:26;;;;;;;0.20;0.20;;;;;;;;;;6219461;28;19971;-78
2024/01/28 02:28:26;;;;;;;0.20;0.20;;;;;;;;;;6202426;28;20033;-78
2024/01/28 02:31:26;;;;;;;0.20;0.20;;;;;;;;;;6220214;28;20040;-78
2024/01/28 02:34:26;;;;;;;0.20;0.20;;;;;;;;;;6220298;28;20037;-78
2024/01/28 02:37:27;;;;;;;0.20;0.20;;;;;;;;;;6221177;28;20025;-78
2024/01/28 02:40:30;;;;;;;0.20;0.20;;;;;;;;;;6220638;28;20290;-77
2024/01/28 02:43:30;;;;;;;0.20;0.20;;;;;;;;;;6202836;28;20036;-77
2024/01/28 02:46:31;;;;;;;0.20;0.20;;;;;;;;;;6219624;28;20097;-78
2024/01/28 02:49:31;;;;;;;0.20;0.20;;;;;;;;;;6220894;28;20036;-78
2024/01/28 02:52:31;;;;;;;0.27;0.27;;;;;;;;;;6220179;28;20462;-78
2024/01/28 02:55:31;;;;;;;0.20;0.20;;;;;;;;;;6220107;28;20030;-78
2024/01/28 02:58:32;;;;;;;0.20;0.20;;;;;;;;;;6219557;28;20052;-77
2024/01/28 03:01:32;;;;;;;0.20;0.20;;;;;;;;;;6220967;28;20176;-77
2024/01/28 03:04:37;;;;;;;0.20;0.20;;;;;;;;;;6218074;28;20481;-77
2024/01/28 03:07:37;;;;;;;0.20;0.20;;;;;;;;;;6220285;28;20113;-77
2024/01/28 03:10:37;;;;;;;0.20;0.20;;;;;;;;;;6219405;28;20468;-77
2024/01/28 03:13:38;;;;;;;0.20;0.20;;;;;;;;;;6220167;28;20101;-77
2024/01/28 03:16:38;;;;;;;0.20;0.20;;;;;;;;;;6213083;28;20011;-77
2024/01/28 03:19:45;;;;;;;0.20;0.20;;;;;;;;;;6212058;28;20096;-77
2024/01/28 03:22:46;;;;;;;0.20;0.20;;;;;;;;;;6219197;28;20481;-77
2024/01/28 03:25:47;;;;;;;0.20;0.20;;;;;;;;;;6219722;28;20061;-77
2024/01/28 03:28:48;;;;;;;0.20;0.20;;;;;;;;;;6204956;28;20037;-77
2024/01/28 03:31:48;;;;;;;0.20;0.20;;;;;;;;;;6219169;28;20085;-77
2024/01/28 03:34:48;;;;;;;0.20;0.20;;;;;;;;;;6201478;28;20483;-77
2024/01/28 03:37:48;;;;;;;0.20;0.20;;;;;;;;;;6201397;28;20396;-77
2024/01/28 03:40:49;;;;;;;0.20;0.20;;;;;;;;;;6218548;28;20036;-77
2024/01/28 03:43:49;;;;;;;0.20;0.20;;;;;;;;;;6218543;28;20018;-77
2024/01/28 03:46:50;;;;;;;0.20;0.20;;;;;;;;;;6201366;28;20028;-80
2024/01/28 03:49:50;;;;;;;0.20;0.20;;;;;;;;;;6201108;28;20021;-80
2024/01/28 03:52:50;;;;;;;0.20;0.20;;;;;;;;;;6218780;28;20036;-80
2024/01/28 03:55:50;;;;;;;0.20;0.20;;;;;;;;;;6218742;28;20026;-80
2024/01/28 03:58:50;;;;;;;0.20;0.20;;;;;;;;;;6217798;28;20026;-80
2024/01/28 04:01:51;;;;;;;0.20;0.20;;;;;;;;;;6218072;28;20029;-80
2024/01/28 04:04:51;;;;;;;0.20;0.20;;;;;;;;;;6218212;28;20042;-80
2024/01/28 04:07:51;;;;;;;0.20;0.20;;;;;;;;;;6205034;28;20500;-80
2024/01/28 04:10:51;;;;;;;0.20;0.20;;;;;;;;;;6200413;28;20472;-80
2024/01/28 04:13:53;;;;;;;0.20;0.20;;;;;;;;;;6218686;28;20032;-80
2024/01/28 04:16:53;;;;;;;0.20;0.20;;;;;;;;;;6200877;28;20022;-80
2024/01/28 04:19:54;;;;;;;0.20;0.20;;;;;;;;;;6217937;28;20499;-79
2024/01/28 04:22:54;;;;;;;0.20;0.20;;;;;;;;;;6218923;28;20049;-79
2024/01/28 04:25:54;;;;;;;0.20;0.20;;;;;;;;;;6218236;28;20022;-80
2024/01/28 04:28:55;;;;;;;0.20;0.20;;;;;;;;;;6201603;28;20045;-80
2024/01/28 04:31:55;;;;;;;0.20;0.20;;;;;;;;;;6218683;28;20112;-80
2024/01/28 04:34:55;;;;;;;0.20;0.20;;;;;;;;;;6218504;28;20108;-80
2024/01/28 04:37:57;;;;;;;0.20;0.20;;;;;;;;;;6217656;28;20116;-79
2024/01/28 04:40:57;;;;;;;0.20;0.20;;;;;;;;;;6218078;28;20168;-79
2024/01/28 04:43:57;;;;;;;0.20;0.20;;;;;;;;;;6217649;28;20073;-79
2024/01/28 04:46:57;;;;;;;0.10;0.10;;;;;;;;;;6218001;28;20018;-79
2024/01/28 04:49:57;;;;;;;0.20;0.20;;;;;;;;;;6217517;28;20033;-79
2024/01/28 04:52:58;;;;;;;0.20;0.20;;;;;;;;;;6218199;28;20547;-79
2024/01/28 04:55:58;;;;;;;0.20;0.20;;;;;;;;;;6217863;28;20033;-80
2024/01/28 04:58:58;;;;;;;0.20;0.20;;;;;;;;;;6217532;28;20563;-80
2024/01/28 05:01:58;;;;;;;0.20;0.20;;;;;;;;;;6217250;28;20021;-80
2024/01/28 05:04:58;;;;;;;0.20;0.20;;;;;;;;;;6217712;28;20053;-80
2024/01/28 05:07:59;;;;;;;0.20;0.20;;;;;;;;;;6216979;28;20026;-80
2024/01/28 05:10:59;;;;;;;0.20;0.20;;;;;;;;;;6212705;28;20030;-80
2024/01/28 05:13:59;;;;;;;0.20;0.20;;;;;;;;;;6222105;28;20032;-80
2024/01/28 05:17:00;;;;;;;0.20;0.20;;;;;;;;;;6204418;28;20030;-80
2024/01/28 05:20:02;;;;;;;0.20;0.20;;;;;;;;;;6208089;28;20029;-80
2024/01/28 05:23:03;;;;;;;0.20;0.20;;;;;;;;;;6203988;28;20045;-80
2024/01/28 05:26:03;;;;;;;0.20;0.20;;;;;;;;;;6203341;28;20059;-81
2024/01/28 05:29:06;;;;;;;0.20;0.20;;;;;;;;;;6221712;28;20029;-81
2024/01/28 05:32:06;;;;;;;0.20;0.20;;;;;;;;;;6221095;28;20408;-82
2024/01/28 05:35:07;;;;;;;0.20;0.20;;;;;;;;;;6222493;28;20057;-82
2024/01/28 05:38:08;;;;;;;0.20;0.20;;;;;;;;;;6221678;28;20030;-82
2024/01/28 05:41:08;;;;;;;0.20;0.20;;;;;;;;;;6223642;28;20029;-82
2024/01/28 05:44:08;;;;;;;0.20;0.20;;;;;;;;;;6221655;28;20018;-82
2024/01/28 05:47:08;;;;;;;0.20;0.20;;;;;;;;;;6220103;28;20030;-82
2024/01/28 05:50:09;;;;;;;0.20;0.20;;;;;;;;;;6221396;28;20053;-82
2024/01/28 05:53:09;;;;;;;0.20;0.20;;;;;;;;;;6221804;28;20026;-82
2024/01/28 05:56:10;;;;;;;0.20;0.20;;;;;;;;;;6203244;28;20400;-82
2024/01/28 05:59:10;;;;;;;0.20;0.20;;;;;;;;;;6221362;28;20507;-82
2024/01/28 06:02:10;;;;;;;0.20;0.20;;;;;;;;;;6218517;28;20523;-82
2024/01/28 06:05:10;;;;;;;0.20;0.20;;;;;;;;;;6215014;28;20050;-82
2024/01/28 06:08:13;;;;;;;0.20;0.20;;;;;;;;;;6221118;28;20041;-82
2024/01/28 06:11:13;;;;;;;0.20;0.20;;;;;;;;;;6220835;28;20026;-82
2024/01/28 06:14:14;;;;;;;0.20;0.20;;;;;;;;;;6220064;28;20113;-82
2024/01/28 06:17:15;;;;;;;0.20;0.20;;;;;;;;;;6221216;28;20022;-78
2024/01/28 06:20:15;;;;;;;0.20;0.20;;;;;;;;;;6220614;28;20029;-78
2024/01/28 06:23:15;;;;;;;0.20;0.20;;;;;;;;;;6219195;28;20109;-78
2024/01/28 06:26:17;;;;;;;0.20;0.20;;;;;;;;;;6219077;28;20026;-78
2024/01/28 06:29:18;;;;;;;0.20;0.20;;;;;;;;;;6219638;28;20029;-78
2024/01/28 06:32:18;;;;;;;0.20;0.20;;;;;;;;;;6218090;28;20587;-78
2024/01/28 06:35:19;;;;;;;0.20;0.20;;;;;;;;;;6220763;28;20037;-78
2024/01/28 06:38:19;;;;;;;0.20;0.20;;;;;;;;;;6191810;28;20040;-78
2024/01/28 06:41:20;;;;;;;0.20;0.20;;;;;;;;;;6219867;28;20022;-78
2024/01/28 06:44:20;;;;;;;0.20;0.20;;;;;;;;;;6218811;28;20464;-78
2024/01/28 06:47:20;;;;;;;0.20;0.20;;;;;;;;;;6219232;28;20030;-78
2024/01/28 06:50:21;;;;;;;0.20;0.20;;;;;;;;;;6219761;28;20049;-78
2024/01/28 06:53:21;;;;;;;0.20;0.20;;;;;;;;;;6219526;28;20048;-78
2024/01/28 06:56:21;;;;;;;0.20;0.20;;;;;;;;;;6219783;28;20033;-78
2024/01/28 06:59:22;;;;;;;0.20;0.20;;;;;;;;;;6219210;28;20036;-78
2024/01/28 07:02:24;;;;;;;0.20;0.20;;;;;;;;;;6218754;28;20053;-78
2024/01/28 07:05:25;;;;;;;0.20;0.20;;;;;;;;;;6218616;28;20046;-78
2024/01/28 07:08:25;;;;;;;0.20;0.20;;;;;;;;;;6219341;28;20064;-78
2024/01/28 07:11:25;;;;;;;0.20;0.20;;;;;;;;;;6201663;28;20164;-79
2024/01/28 07:14:25;;;;;;;0.20;0.20;;;;;;;;;;6219557;28;20029;-78
2024/01/28 07:17:26;;;;;;;0.20;0.20;;;;;;;;;;6217969;28;20412;-83
2024/01/28 07:20:26;;;;;;;0.20;0.20;;;;;;;;;;6189328;28;20665;-82
2024/01/28 07:23:26;;;;;;;0.20;0.20;;;;;;;;;;6200990;28;20120;-82
2024/01/28 07:26:27;;;;;;;0.20;0.20;;;;;;;;;;6191467;28;20079;-82
2024/01/28 07:29:27;;;;;;;0.20;0.20;;;;;;;;;;6219189;28;20024;-82
2024/01/28 07:32:27;;;;;;;0.20;0.20;;;;;;;;;;6200012;28;20022;-85
2024/01/28 07:35:28;;;;;;;0.20;0.20;;;;;;;;;;6218539;28;20057;-85
2024/01/28 07:38:28;;;;;;;0.20;0.20;;;;;;;;;;6216088;28;20579;-85
2024/01/28 07:41:29;;;;;;;0.20;0.20;;;;;;;;;;6215935;28;20032;-85
2024/01/28 07:44:29;;;;;;;0.20;0.20;;;;;;;;;;6216080;28;20030;-85
2024/01/28 07:47:29;;;;;;;0.20;0.20;;;;;;;;;;6176809;28;20092;-84
2024/01/28 07:50:30;;;;;;;0.20;0.20;;;;;;;;;;6216575;28;20540;-85
2024/01/28 07:53:31;;;;;;;0.20;0.20;;;;;;;;;;6217072;28;20018;-85
2024/01/28 07:56:31;;;;;;;0.20;0.20;;;;;;;;;;6217248;28;20056;-85
2024/01/28 07:59:32;;;;;;;0.20;0.20;;;;;;;;;;6216580;28;20026;-85
2024/01/28 08:02:33;;;;;;;0.20;0.20;;;;;;;;;;6216266;28;20392;-85
2024/01/28 08:05:33;;;;;;;0.20;0.20;;;;;;;;;;6216396;28;20041;-85
2024/01/28 08:08:33;;;;;;;0.10;0.10;;;;;;;;;;6199357;28;20470;-85
2024/01/28 08:11:33;;;;;;;0.20;0.20;;;;;;;;;;6208490;28;20540;-85
2024/01/28 08:14:34;;;;;;;0.10;0.10;;;;;;;;;;6215554;28;20021;-84
2024/01/28 08:17:34;;;;;;;0.20;0.20;;;;;;;;;;6216734;28;20030;-85
2024/01/28 08:20:34;;;;;;;0.20;0.20;;;;;;;;;;6195444;28;20030;-85
2024/01/28 08:23:34;;;;;;;0.20;0.20;;;;;;;;;;6199046;28;20116;-85
2024/01/28 08:26:34;;;;;;;0.20;0.20;;;;;;;;;;6212452;28;20044;-85
2024/01/28 08:29:37;;;;;;;0.20;0.20;;;;;;;;;;6215933;28;20041;-85
2024/01/28 08:32:37;;;;;;;0.20;0.20;;;;;;;;;;6199074;28;20500;-85
2024/01/28 08:35:37;;;;;;;0.20;0.20;;;;;;;;;;6214326;28;20022;-80
2024/01/28 08:38:38;;;;;;;0.20;0.20;;;;;;;;;;6189535;28;20025;-80
2024/01/28 08:41:41;;;;;;;0.20;0.20;;;;;;;;;;6213447;28;20387;-80
2024/01/28 08:44:41;;;;;;;0.20;0.20;;;;;;;;;;6199345;28;20028;-80
2024/01/28 08:47:41;;;;;;;0.20;0.20;;;;;;;;;;6224562;28;20465;-80
2024/01/28 08:50:41;;;;;;;0.20;0.20;;;;;;;;;;6224434;28;20018;-80
2024/01/28 08:53:43;;;;;;;0.20;0.20;;;;;;;;;;6207645;28;20388;-79
2024/01/28 08:56:43;;;;;;;;;;;;;;;;;;6225646;28;20028;-80
2024/01/28 08:59:43;;;;;;;0.20;0.20;;;;;;;;;;6224938;28;19910;-80
2024/01/28 09:02:44;;;;;;;0.20;0.20;;;;;;;;;;6225180;28;20022;-79
2024/01/28 09:05:44;;;;;;;0.20;0.20;;;;;;;;;;6225350;28;20437;-80
2024/01/28 09:08:45;;;;;;;0.20;0.20;;;;;;;;;;6225674;28;20040;-80
2024/01/28 09:11:45;;;;;;;0.20;0.20;;;;;;;;;;6225421;28;20025;-80
2024/01/28 09:14:45;;;;;;;0.20;0.20;;;;;;;;;;6225536;28;20032;-80
2024/01/28 09:17:45;;;;;;;0.20;0.20;;;;;;;;;;6207282;28;20029;-80
2024/01/28 09:20:46;;;;;;;0.20;0.20;;;;;;;;;;6225155;28;20036;-79
2024/01/28 09:23:46;;;;;;;0.20;0.20;;;;;;;;;;6207571;28;20030;-79
2024/01/28 09:26:46;;;;;;;0.20;0.20;;;;;;;;;;6222009;28;20385;-80
2024/01/28 09:29:48;;;;;;;0.20;0.20;;;;;;;;;;6224223;28;20030;-80
2024/01/28 09:32:48;;;;;;;0.20;0.20;;;;;;;;;;6224513;28;20447;-80
2024/01/28 09:35:52;;;;;;;0.20;0.20;;;;;;;;;;6207014;28;20022;-85
2024/01/28 09:38:52;;;;;;;0.20;0.20;;;;;;;;;;6215312;28;20025;-84
2024/01/28 09:42:05;;;;;;;0.20;0.20;;;;;;;;;;6223820;28;20484;-84
2024/01/28 09:45:08;;;;;;;0.10;0.10;;;;;;;;;;6224460;28;20358;-84
2024/01/28 09:48:09;;;;;;;0.20;0.20;;;;;;;;;;6224809;28;20034;-84
2024/01/28 09:51:10;;;;;;;0.20;0.20;;;;;;;;;;6207173;28;20037;-84
2024/01/28 09:54:12;;;;;;;0.20;0.20;;;;;;;;;;6225234;28;20029;-84
2024/01/28 09:57:14;;;;;;;0.20;0.20;;;;;;;;;;6222160;28;20476;-84
2024/01/28 10:00:15;;;;;;;0.13;0.13;;;;;;;;;;6202924;28;20076;-84
2024/01/28 10:03:15;;;;;;;0.20;0.20;;;;;;;;;;6220432;28;20057;-84
2024/01/28 10:06:16;;;;;;;0.20;0.20;;;;;;;;;;6220656;28;20026;-84
2024/01/28 10:09:16;;;;;;;0.20;0.20;;;;;;;;;;6220721;28;20033;-84
2024/01/28 10:12:17;;;;;;;0.20;0.20;;;;;;;;;;6220190;28;20060;-84
2024/01/28 10:15:18;;;;;;;0.20;0.20;;;;;;;;;;6220630;28;20485;-84
2024/01/28 10:18:20;;;;;;;0.20;0.20;;;;;;;;;;6220713;28;20400;-84
2024/01/28 10:21:21;;;;;;;0.10;0.10;;;;;;;;;;6220228;28;20108;-84
2024/01/28 10:24:22;;;;;;;0.10;0.10;;;;;;;;;;6207073;28;20026;-84
2024/01/28 10:27:22;;;;;;;0.20;0.20;;;;;;;;;;6220552;28;20108;-84
2024/01/28 10:30:22;;;;;;;0.10;0.10;;;;;;;;;;6202394;28;20084;-84
2024/01/28 10:33:23;;;;;;;0.20;0.20;;;;;;;;;;6220699;28;20384;-84
2024/01/28 10:36:23;;;;;;;0.20;0.20;;;;;;;;;;6206694;28;20028;-84
2024/01/28 10:39:24;;;;;;;0.20;0.20;;;;;;;;;;6220412;28;20045;-84
2024/01/28 10:42:29;;;;;;;0.10;0.10;;;;;;;;;;6219545;28;20150;-84
2024/01/28 10:45:31;;;;;;;0.13;0.13;;;;;;;;;;6220037;28;20020;-84
2024/01/28 10:48:31;;;;;;;0.20;0.20;;;;;;;;;;6219796;28;20017;-84
2024/01/28 10:51:32;;;;;;;0.17;0.17;;;;;;;;;;6219848;28;20079;-84
2024/01/28 10:54:34;;;;;;;0.15;0.15;;;;;;;;;;6200394;28;20025;-84
2024/01/28 10:57:39;;;;;;;0.20;0.20;;;;;;;;;;6200417;28;20111;-84
2024/01/28 11:00:39;;;;;;;0.10;0.10;;;;;;;;;;6199352;28;20034;-84
2024/01/28 11:03:40;;;;;;;0.17;0.17;;;;;;;;;;6218531;28;20048;-84
2024/01/28 11:06:41;;;;;;;0.10;0.10;;;;;;;;;;6218716;28;20721;-80
2024/01/28 11:09:41;;;;;;;0.10;0.10;;;;;;;;;;6218953;28;20485;-80
2024/01/28 11:12:41;;;;;;;0.10;0.10;;;;;;;;;;6218561;28;20033;-80
2024/01/28 11:15:43;;;;;;;0.10;0.10;;;;;;;;;;6219159;28;20049;-80
2024/01/28 11:18:56;;;;;;;0.20;0.20;;;;;;;;;;6219105;28;20383;-80
2024/01/28 11:21:57;;;;;;;0.20;0.20;;;;;;;;;;6218743;28;20029;-79
2024/01/28 11:24:59;;;;;;;0.20;0.20;;;;;;;;;;6216571;28;20397;-80
2024/01/28 11:28:00;;;;;;;0.20;0.20;;;;;;;;;;6215396;28;20022;-80
2024/01/28 11:31:01;;;;;;;0.10;0.10;;;;;;;;;;6200127;28;20022;-80
2024/01/28 11:34:07;;;;;;;0.20;0.20;;;;;;;;;;6205043;28;20093;-80
2024/01/28 11:37:09;;;;;;;0.15;0.15;;;;;;;;;;6207636;28;20093;-80
2024/01/28 11:40:17;;;;;;;0.13;0.13;;;;;;;;;;6199869;28;20022;-80
2024/01/28 11:43:18;;;;;;;0.20;0.20;;;;;;;;;;6216867;28;20033;-80
2024/01/28 11:46:19;;;;;;;0.10;0.10;;;;;;;;;;6216683;28;20123;-80
2024/01/28 11:49:19;;;;;;;0.13;0.13;;;;;;;;;;6217218;28;20017;-80
2024/01/28 11:52:20;;;;;;;0.20;0.20;;;;;;;;;;6217108;28;20018;-80
2024/01/28 11:55:20;;;;;;;0.10;0.10;;;;;;;;;;6199104;28;20101;-83
2024/01/28 11:58:20;;;;;;;0.10;0.10;;;;;;;;;;6217123;28;20097;-80
2024/01/28 12:01:21;;;;;;;0.10;0.10;;;;;;;;;;6217190;28;20100;-79
2024/01/28 12:04:21;;;;;;;0.20;0.20;;;;;;;;;;6216758;28;20037;-80
2024/01/28 12:07:21;;;;;;;0.10;0.10;;;;;;;;;;6216895;28;20014;-79
2024/01/28 12:10:22;;;;;;;0.10;0.10;;;;;;;;;;6217361;28;20481;-79
2024/01/28 12:13:22;;;;;;;0.20;0.20;;;;;;;;;;6217207;28;20386;-80
2024/01/28 12:16:23;;;;;;;0.10;0.10;;;;;;;;;;6199073;28;20113;-80
2024/01/28 12:19:23;;;;;;;0.10;0.10;;;;;;;;;;6207192;28;20365;-80
2024/01/28 12:22:24;;;;;;;0.10;0.10;;;;;;;;;;6217334;28;20369;-80
2024/01/28 12:25:25;;;;;;;0.10;0.10;;;;;;;;;;6207717;28;20101;-83
2024/01/28 12:28:25;;;;;;;0.20;0.20;;;;;;;;;;6218106;28;20018;-80
2024/01/28 12:31:25;;;;;;;0.10;0.10;;;;;;;;;;6218143;28;20045;-80
2024/01/28 12:34:26;;;;;;;0.10;0.10;;;;;;;;;;6218784;28;20100;-80
2024/01/28 12:37:26;;;;;;;0.10;0.10;;;;;;;;;;6217552;28;20026;-83
2024/01/28 12:40:26;;;;;;;0.20;0.20;;;;;;;;;;6218377;28;20045;-83
2024/01/28 12:43:27;;;;;;;0.10;0.10;;;;;;;;;;6199474;28;20448;-83
2024/01/28 12:46:27;;;;;;;0.10;0.10;;;;;;;;;;6217662;28;20457;-83
2024/01/28 12:49:28;;;;;;;0.10;0.10;;;;;;;;;;6200948;28;20041;-83
2024/01/28 12:52:28;;;;;;;0.20;0.20;;;;;;;;;;6199924;28;20388;-83
2024/01/28 12:55:28;;;;;;;0.17;0.17;;;;;;;;;;6217883;28;20316;-83
2024/01/28 12:58:28;;;;;;;0.20;0.20;;;;;;;;;;6217590;28;20492;-82
2024/01/28 13:01:29;;;;;;;0.20;0.20;;;;;;;;;;6218055;28;20025;-83
2024/01/28 13:04:29;;;;;;;0.10;0.10;;;;;;;;;;6216933;28;20092;-83
2024/01/28 13:07:29;;;;;;;0.10;0.10;;;;;;;;;;6217493;28;20010;-83
2024/01/28 13:10:29;;;;;;;0.10;0.10;;;;;;;;;;6208783;28;20037;-83
2024/01/28 13:13:31;;;;;;;0.10;0.10;;;;;;;;;;6217717;28;20022;-83
2024/01/28 13:16:32;;;;;;;0.20;0.20;;;;;;;;;;6199704;28;20063;-83
2024/01/28 13:19:32;;;;;;;0.20;0.20;;;;;;;;;;6186247;28;20286;-84
2024/01/28 13:22:32;;;;;;;0.20;0.20;;;;;;;;;;6216811;28;20029;-84
2024/01/28 13:25:32;;;;;;;0.20;0.20;;;;;;;;;;6217758;28;20014;-83
2024/01/28 13:28:33;;;;;;;0.20;0.20;;;;;;;;;;6217130;28;20025;-81
2024/01/28 13:31:33;;;;;;;0.20;0.20;;;;;;;;;;6216751;28;20044;-81
2024/01/28 13:34:34;;;;;;;0.20;0.20;;;;;;;;;;6221487;28;20518;-81
2024/01/28 13:37:35;;;;;;;0.10;0.10;;;;;;;;;;6203806;28;20026;-81
2024/01/28 13:40:36;;;;;;;0.10;0.10;;;;;;;;;;6220750;28;20041;-82
2024/01/28 13:43:36;;;;;;;0.20;0.20;;;;;;;;;;6214403;28;20026;-83
2024/01/28 13:46:37;;;;;;;0.20;0.20;;;;;;;;;;6219822;28;20575;-83
2024/01/28 13:49:37;;;;;;;0.10;0.10;;;;;;;;;;6222484;28;20026;-83
2024/01/28 13:52:38;;;;;;;0.20;0.20;;;;;;;;;;6218659;28;20054;-83
2024/01/28 13:55:38;;;;;;;0.20;0.20;;;;;;;;;;6218316;28;20121;-78
2024/01/28 13:58:39;;;;;;;0.20;0.20;;;;;;;;;;6219269;28;20103;-78
2024/01/28 14:01:40;;;;;;;0.10;0.10;;;;;;;;;;6202423;28;20032;-78
2024/01/28 14:04:40;;;;;;;0.20;0.20;;;;;;;;;;6218842;28;20380;-78
2024/01/28 14:07:40;;;;;;;0.10;0.10;;;;;;;;;;6218095;28;20472;-78
2024/01/28 14:10:40;;;;;;;0.10;0.10;;;;;;;;;;6218946;28;20102;-78
2024/01/28 14:13:41;;;;;;;0.20;0.20;;;;;;;;;;6220686;28;20423;-78
2024/01/28 14:16:41;;;;;;;0.10;0.10;;;;;;;;;;6217389;28;20535;-78
2024/01/28 14:19:42;;;;;;;0.10;0.10;;;;;;;;;;6220031;28;20061;-78
2024/01/28 14:22:42;;;;;;;0.10;0.10;;;;;;;;;;6216196;28;20018;-78
2024/01/28 14:25:42;;;;;;;0.10;0.10;;;;;;;;;;6218965;28;20433;-78
2024/01/28 14:28:43;;;;;;;0.20;0.20;;;;;;;;;;6219230;28;20372;-77
2024/01/28 14:31:43;;;;;;;0.10;0.10;;;;;;;;;;6201463;28;20033;-77
2024/01/28 14:34:43;;;;;;;0.13;0.13;;;;;;;;;;6219124;28;20377;-77
2024/01/28 14:37:43;;;;;;;0.10;0.10;;;;;;;;;;6218646;28;20051;-78
2024/01/28 14:40:44;;;;;;;0.10;0.10;;;;;;;;;;6218746;28;20095;-78
2024/01/28 14:43:44;;;;;;;0.10;0.10;;;;;;;;;;6201164;28;20022;-79
2024/01/28 14:46:44;;;;;;;0.10;0.10;;;;;;;;;;6218279;28;20406;-79
2024/01/28 14:49:44;;;;;;;0.10;0.10;;;;;;;;;;6218876;28;20061;-78
2024/01/28 14:52:45;;;;;;;0.20;0.20;;;;;;;;;;6217776;28;20029;-79
2024/01/28 14:55:45;;;;;;;0.20;0.20;;;;;;;;;;6218052;28;20059;-79
2024/01/28 14:58:45;;;;;;;0.20;0.20;;;;;;;;;;6218282;28;20325;-79
2024/01/28 15:01:45;;;;;;;0.20;0.20;;;;;;;;;;6213116;28;20046;-79
2024/01/28 15:04:46;;;;;;;0.20;0.20;;;;;;;;;;6217621;28;20046;-78
2024/01/28 15:07:46;;;;;;;0.13;0.13;;;;;;;;;;6217374;28;20013;-83
2024/01/28 15:10:46;;;;;;;0.20;0.20;;;;;;;;;;6217950;28;20592;-83
2024/01/28 15:13:47;;;;;;;0.20;0.20;;;;;;;;;;6215014;28;20504;-83
2024/01/28 15:16:47;;;;;;;0.20;0.20;;;;;;;;;;6216825;28;20065;-83
2024/01/28 15:19:47;;;;;;;0.10;0.10;;;;;;;;;;6214030;28;20034;-83
2024/01/28 15:22:48;;;;;;;0.20;0.20;;;;;;;;;;6214613;28;20107;-83
2024/01/28 15:25:48;;;;;;;0.10;0.10;;;;;;;;;;6218513;28;20054;-83
2024/01/28 15:28:48;;;;;;;0.20;0.20;;;;;;;;;;6215307;28;20076;-83
2024/01/28 15:31:49;;;;;;;0.20;0.20;;;;;;;;;;6218798;28;20022;-83
2024/01/28 15:34:50;;;;;;;0.10;0.10;;;;;;;;;;6218935;28;20112;-83
2024/01/28 15:37:51;;;;;;;0.20;0.20;;;;;;;;;;6216948;28;20038;-83
2024/01/28 15:40:52;;;;;;;0.20;0.20;;;;;;;;;;6218788;28;20107;-83
2024/01/28 15:43:52;;;;;;;0.17;0.17;;;;;;;;;;6203001;28;20370;-83
2024/01/28 15:46:52;;;;;;;0.10;0.10;;;;;;;;;;6203144;28;20552;-83
2024/01/28 15:49:52;;;;;;;0.10;0.10;;;;;;;;;;6211373;28;20088;-83
2024/01/28 15:52:53;;;;;;;0.20;0.20;;;;;;;;;;6217803;28;20121;-81
2024/01/28 15:55:53;;;;;;;0.20;0.20;;;;;;;;;;6217757;28;20036;-81
2024/01/28 15:58:55;;;;;;;0.20;0.20;;;;;;;;;;6217230;28;20371;-80
2024/01/28 16:01:55;;;;;;;0.20;0.20;;;;;;;;;;6218194;28;20032;-80
2024/01/28 16:04:55;;;;;;;0.10;0.10;;;;;;;;;;6218703;28;20050;-80
2024/01/28 16:07:56;;;;;;;0.20;0.20;;;;;;;;;;6217813;28;20113;-80
2024/01/28 16:10:56;;;;;;;0.20;0.20;;;;;;;;;;6215682;28;20014;-80
2024/01/28 16:13:57;;;;;;;0.20;0.20;;;;;;;;;;6217655;28;20587;-80
2024/01/28 16:16:57;;;;;;;0.20;0.20;;;;;;;;;;6205654;28;20032;-78
2024/01/28 16:19:58;;;;;;;0.20;0.20;;;;;;;;;;6217242;28;20036;-76
2024/01/28 16:23:01;;;;;;;0.20;0.20;;;;;;;;;;6220951;28;20029;-78
2024/01/28 16:26:01;;;;;;;0.20;0.20;;;;;;;;;;6217376;28;20088;-81
2024/01/28 16:29:02;;;;;;;0.20;0.20;;;;;;;;;;6214514;28;20033;-80
2024/01/28 16:32:02;;;;;;;0.20;0.20;;;;;;;;;;6209984;28;20033;-80
2024/01/28 16:35:02;;;;;;;0.20;0.20;;;;;;;;;;6199857;28;20492;-80
2024/01/28 16:38:03;;;;;;;0.20;0.20;;;;;;;;;;6218192;28;20038;-80
2024/01/28 16:41:03;;;;;;;0.10;0.10;;;;;;;;;;6215546;28;20111;-80
2024/01/28 16:44:03;;;;;;;0.10;0.10;;;;;;;;;;6216026;28;20472;-79
2024/01/28 16:47:04;;;;;;;0.10;0.10;;;;;;;;;;6217427;28;20092;-79
2024/01/28 16:50:06;;;;;;;0.20;0.20;;;;;;;;;;6217079;28;20081;-80
2024/01/28 16:53:06;;;;;;;0.20;0.20;;;;;;;;;;6192683;28;20092;-80
2024/01/28 16:56:06;;;;;;;0.20;0.20;;;;;;;;;;6197468;28;20026;-78
2024/01/28 16:59:08;;;;;;;0.20;0.20;;;;;;;;;;6217816;28;20512;-78
2024/01/28 17:02:08;;;;;;;0.10;0.10;;;;;;;;;;6205808;28;20030;-77
2024/01/28 17:05:08;;;;;;;0.20;0.20;;;;;;;;;;6214398;28;20092;-77
2024/01/28 17:08:09;;;;;;;0.20;0.20;;;;;;;;;;6221858;28;20025;-77
2024/01/28 17:11:09;;;;;;;0.20;0.20;;;;;;;;;;6220132;28;20018;-77
2024/01/28 17:14:10;;;;;;;0.20;0.20;;;;;;;;;;6221759;28;20257;-78
2024/01/28 17:17:12;;;;;;;0.13;0.13;;;;;;;;;;6221968;28;20021;-77
2024/01/28 17:20:12;;;;;;;0.20;0.20;;;;;;;;;;6202078;28;20053;-77
2024/01/28 17:23:13;;;;;;;0.20;0.20;;;;;;;;;;6202646;28;20022;-77
2024/01/28 17:26:14;;;;;;;0.20;0.20;;;;;;;;;;6220486;28;20014;-77
2024/01/28 17:29:14;;;;;;;0.20;0.20;;;;;;;;;;6220135;28;20563;-77
2024/01/28 17:32:14;;;;;;;0.20;0.20;;;;;;;;;;6218864;28;20293;-77
2024/01/28 17:35:14;;;;;;;0.20;0.20;;;;;;;;;;6220702;28;20032;-77
2024/01/28 17:38:15;;;;;;;0.20;0.20;;;;;;;;;;6219660;28;20037;-78
2024/01/28 17:41:16;;;;;;;0.20;0.20;;;;;;;;;;6220024;28;20022;-77
2024/01/28 17:44:17;;;;;;;0.20;0.20;;;;;;;;;;6206862;28;20033;-77
2024/01/28 17:47:19;;;;;;;0.20;0.20;;;;;;;;;;6219936;28;20029;-77
2024/01/28 17:50:19;;;;;;;0.20;0.20;;;;;;;;;;6202417;28;20105;-77
2024/01/28 17:53:20;;;;;;;0.20;0.20;;;;;;;;;;6220151;28;20064;-77
2024/01/28 17:56:20;;;;;;;0.20;0.20;;;;;;;;;;6220092;28;20530;-77
2024/01/28 17:59:21;;;;;;;0.20;0.20;;;;;;;;;;6219783;28;20492;-77
2024/01/28 18:02:21;;;;;;;0.20;0.20;;;;;;;;;;6200447;28;20424;-77